Time;durP1;ratioP1;P1;durP2;ratioP2;P2;SDS_P1;SDS_P2;PMS_P1;PMS_P2;Temp;Humidity;BMP_temperature;BMP_pressure;BME280_temperature;BME280_humidity;BME280_pressure;Samples;Min_cycle;Max_cycle;Signal;HPM_P1;HPM_P2
2021/11/11 00:00:05;;;;;;;;;;;;;;;;;;5045627;28;19912;-57
2021/11/11 00:02:31;;;;;;;;;;;;;;;;;;5045891;28;19905;-58
2021/11/11 00:04:58;;;;;;;;;;;;;;;;;;5046858;28;20339;-58
2021/11/11 00:07:24;;;;;;;;;;;;;;;;;;5063287;28;19916;-58
2021/11/11 00:09:50;;;;;;;;;;;;;;;;;;5061436;28;19918;-58
2021/11/11 00:12:17;;;;;;;;;;;;;;;;;;5058729;28;20428;-58
2021/11/11 00:14:43;;;;;;;;;;;;;;;;;;5055944;28;19920;-58
2021/11/11 00:17:09;;;;;;;;;;;;;;;;;;5064912;28;19935;-58
2021/11/11 00:19:36;;;;;;;;;;;;;;;;;;5065659;28;19912;-58
2021/11/11 00:22:02;;;;;;;;;;;;;;;;;;5065546;28;19912;-58
2021/11/11 00:24:29;;;;;;;;;;;;;;;;;;5064221;28;19917;-58
2021/11/11 00:26:55;;;;;;;;;;;;;;;;;;5066179;28;19909;-58
2021/11/11 00:29:22;;;;;;;;;;;;;;;;;;5064097;28;19953;-58
2021/11/11 00:31:48;;;;;;;;;;;;;;;;;;5064274;28;20426;-58
2021/11/11 00:34:13;;;;;;;;;;;;;;;;;;5065027;28;19916;-58
2021/11/11 00:36:39;;;;;;;;;;;;;;;;;;5065422;28;19908;-58
2021/11/11 00:39:05;;;;;;;;;;;;;;;;;;5065330;28;20165;-58
2021/11/11 00:41:31;;;;;;;;;;;;;;;;;;5065739;28;19909;-58
2021/11/11 00:43:57;;;;;;;;;;;;;;;;;;5065604;28;19958;-58
2021/11/11 00:46:23;;;;;;;;;;;;;;;;;;5045647;28;19944;-58
2021/11/11 00:48:49;;;;;;;;;;;;;;;;;;5045673;28;19971;-58
2021/11/11 00:51:15;;;;;;;;;;;;;;;;;;5044350;28;19909;-58
2021/11/11 00:53:41;;;;;;;;;;;;;;;;;;5046136;28;20003;-58
2021/11/11 00:56:07;;;;;;;;;;;;;;;;;;5045325;28;19913;-58
2021/11/11 00:58:32;;;;;;;;;;;;;;;;;;5052179;28;19924;-58
2021/11/11 01:01:00;;;;;;;;;;;;;;;;;;5046904;28;19913;-58
2021/11/11 01:03:33;;;;;;;;;;;;;;;;;;5045416;28;19947;-58
2021/11/11 01:05:59;;;;;;;;;;;;;;;;;;5044686;28;20438;-58
2021/11/11 01:08:25;;;;;;;;;;;;;;;;;;5056903;28;19916;-58
2021/11/11 01:10:51;;;;;;;;;;;;;;;;;;5065050;28;19909;-58
2021/11/11 01:13:17;;;;;;;;;;;;;;;;;;5065352;28;19916;-58
2021/11/11 01:15:43;;;;;;;;;;;;;;;;;;5064380;28;20352;-58
2021/11/11 01:18:09;;;;;;;;;;;;;;;;;;5063761;28;20011;-58
2021/11/11 01:20:36;;;;;;;;;;;;;;;;;;5064387;28;20264;-58
2021/11/11 01:23:02;;;;;;;;;;;;;;;;;;5064872;28;19969;-58
2021/11/11 01:25:27;;;;;;;;;;;;;;;;;;5053344;28;19924;-58
2021/11/11 01:27:54;;;;;;;;;;;;;;;;;;5064218;28;20307;-57
2021/11/11 01:30:20;;;;;;;;;;;;;;;;;;5064828;28;19908;-58
2021/11/11 01:32:46;;;;;;;;;;;;;;;;;;5065457;28;19916;-58
2021/11/11 01:35:13;;;;;;;;;;;;;;;;;;5065526;28;20374;-58
2021/11/11 01:37:41;;;;;;;;;;;;;;;;;;5063974;28;19995;-58
2021/11/11 01:40:07;;;;;;;;;;;;;;;;;;5064935;28;19991;-58
2021/11/11 01:42:32;;;;;;;;;;;;;;;;;;5065369;28;20038;-58
2021/11/11 01:44:58;;;;;;;;;;;;;;;;;;5065179;28;19908;-58
2021/11/11 01:47:24;;;;;;;;;;;;;;;;;;5063888;28;19973;-58
2021/11/11 01:49:50;;;;;;;;;;;;;;;;;;5064681;28;19913;-58
2021/11/11 01:52:18;;;;;;;;;;;;;;;;;;5064616;28;20457;-58
2021/11/11 01:54:44;;;;;;;;;;;;;;;;;;5065463;28;19957;-58
2021/11/11 01:57:11;;;;;;;;;;;;;;;;;;5063604;28;19995;-58
2021/11/11 01:59:37;;;;;;;;;;;;;;;;;;5058761;28;19913;-58
2021/11/11 02:02:03;;;;;;;;;;;;;;;;;;5049492;28;20414;-58
2021/11/11 02:04:29;;;;;;;;;;;;;;;;;;5048644;28;19913;-58
2021/11/11 02:06:55;;;;;;;;;;;;;;;;;;5048490;28;19920;-58
2021/11/11 02:09:22;;;;;;;;;;;;;;;;;;5065195;28;19912;-58
2021/11/11 02:11:48;;;;;;;;;;;;;;;;;;5068525;28;19924;-58
2021/11/11 02:14:15;;;;;;;;;;;;;;;;;;5068838;28;20288;-58
2021/11/11 02:16:41;;;;;;;;;;;;;;;;;;5069170;28;19955;-58
2021/11/11 02:19:08;;;;;;;;;;;;;;;;;;5066904;28;20380;-58
2021/11/11 02:21:35;;;;;;;;;;;;;;;;;;5068006;28;20379;-58
2021/11/11 02:24:01;;;;;;;;;;;;;;;;;;5065122;28;20368;-58
2021/11/11 02:26:26;;;;;;;;;;;;;;;;;;5068147;28;20015;-58
2021/11/11 02:28:52;;;;;;;;;;;;;;;;;;5054000;28;20126;-58
2021/11/11 02:31:20;;;;;;;;;;;;;;;;;;5048006;28;20428;-58
2021/11/11 02:33:46;;;;;;;;;;;;;;;;;;5048090;28;19917;-58
2021/11/11 02:36:12;;;;;;;;;;;;;;;;;;5048418;28;19909;-58
2021/11/11 02:38:38;;;;;;;;;;;;;;;;;;5047545;28;19916;-58
2021/11/11 02:41:04;;;;;;;;;;;;;;;;;;5047873;28;19920;-58
2021/11/11 02:43:31;;;;;;;;;;;;;;;;;;5048244;28;19905;-58
2021/11/11 02:45:57;;;;;;;;;;;;;;;;;;5047927;28;20281;-58
2021/11/11 02:48:23;;;;;;;;;;;;;;;;;;5055772;28;19927;-58
2021/11/11 02:50:49;;;;;;;;;;;;;;;;;;5067584;28;19921;-58
2021/11/11 02:53:14;;;;;;;;;;;;;;;;;;5068237;28;19916;-58
2021/11/11 02:55:40;;;;;;;;;;;;;;;;;;5068289;28;19908;-58
2021/11/11 02:58:06;;;;;;;;;;;;;;;;;;5066059;28;20422;-58
2021/11/11 03:00:32;;;;;;;;;;;;;;;;;;5067656;28;19908;-58
2021/11/11 03:02:59;;;;;;;;;;;;;;;;;;5067558;28;19912;-58
2021/11/11 03:05:25;;;;;;;;;;;;;;;;;;5067532;28;19908;-58
2021/11/11 03:07:52;;;;;;;;;;;;;;;;;;5065758;28;19916;-58
2021/11/11 03:10:18;;;;;;;;;;;;;;;;;;5067418;28;19955;-58
2021/11/11 03:12:44;;;;;;;;;;;;;;;;;;5068687;28;20398;-58
2021/11/11 03:15:10;;;;;;;;;;;;;;;;;;5066755;28;20167;-58
2021/11/11 03:17:36;;;;;;;;;;;;;;;;;;5064953;28;19985;-58
2021/11/11 03:20:02;;;;;;;;;;;;;;;;;;5047397;28;19909;-58
2021/11/11 03:22:29;;;;;;;;;;;;;;;;;;5067401;28;19913;-58
2021/11/11 03:24:55;;;;;;;;;;;;;;;;;;5067311;28;19953;-58
2021/11/11 03:27:21;;;;;;;;;;;;;;;;;;5067058;28;19948;-58
2021/11/11 03:29:46;;;;;;;;;;;;;;;;;;5066046;28;19916;-58
2021/11/11 03:32:13;;;;;;;;;;;;;;;;;;5067499;28;20334;-58
2021/11/11 03:34:39;;;;;;;;;;;;;;;;;;5067422;28;19916;-58
2021/11/11 03:37:05;;;;;;;;;;;;;;;;;;5066848;28;19970;-58
2021/11/11 03:39:31;;;;;;;;;;;;;;;;;;5065706;28;20307;-58
2021/11/11 03:41:57;;;;;;;;;;;;;;;;;;5067121;28;19951;-58
2021/11/11 03:44:23;;;;;;;;;;;;;;;;;;5067007;28;19963;-58
2021/11/11 03:46:49;;;;;;;;;;;;;;;;;;5066662;28;19912;-58
2021/11/11 03:49:16;;;;;;;;;;;;;;;;;;5065860;28;19913;-58
2021/11/11 03:51:43;;;;;;;;;;;;;;;;;;5067425;28;19962;-58
2021/11/11 03:54:11;;;;;;;;;;;;;;;;;;5066353;28;19916;-58
2021/11/11 03:56:39;;;;;;;;;;;;;;;;;;5066603;28;19916;-58
2021/11/11 03:59:05;;;;;;;;;;;;;;;;;;5060766;28;19956;-58
2021/11/11 04:01:32;;;;;;;;;;;;;;;;;;5057853;28;20403;-58
2021/11/11 04:03:58;;;;;;;;;;;;;;;;;;5066428;28;19912;-58
2021/11/11 04:06:24;;;;;;;;;;;;;;;;;;5066682;28;19912;-58
2021/11/11 04:08:51;;;;;;;;;;;;;;;;;;5060317;28;19967;-58
2021/11/11 04:11:17;;;;;;;;;;;;;;;;;;5062403;28;20153;-58
2021/11/11 04:13:44;;;;;;;;;;;;;;;;;;5067050;28;19927;-58
2021/11/11 04:16:10;;;;;;;;;;;;;;;;;;5065872;28;19956;-58
2021/11/11 04:18:36;;;;;;;;;;;;;;;;;;5064920;28;20030;-58
2021/11/11 04:21:02;;;;;;;;;;;;;;;;;;5065509;28;19912;-58
2021/11/11 04:23:28;;;;;;;;;;;;;;;;;;5065925;28;19954;-58
2021/11/11 04:29:11;;;;;;;;;;;;;;;;;;5050746;28;19927;-57
2021/11/11 04:31:21;;;;;;;;;;;;;;;;;;5065889;28;19912;-57
2021/11/11 04:33:49;;;;;;;;;;;;;;;;;;5065907;28;19970;-58
2021/11/11 04:41:41;;;;;;;;;;;;;;;;;;5065758;28;20454;-58
2021/11/11 04:47:26;;;;;;;;;;;;;;;;;;5065708;28;19916;-58
2021/11/11 05:03:23;;;;;;;;;;;;;;;;;;5045309;28;19999;-58
2021/11/11 05:05:50;;;;;;;;;;;;;;;;;;5045788;28;19924;-58
2021/11/11 05:08:16;;;;;;;;;;;;;;;;;;5045343;28;19924;-58
2021/11/11 05:10:42;;;;;;;;;;;;;;;;;;5048039;28;19916;-58
2021/11/11 05:13:08;;;;;;;;;;;;;;;;;;5045247;28;19917;-58
2021/11/11 05:15:34;;;;;;;;;;;;;;;;;;5043848;28;20371;-58
2021/11/11 05:18:00;;;;;;;;;;;;;;;;;;5044875;28;20038;-58
2021/11/11 05:20:26;;;;;;;;;;;;;;;;;;5044794;28;19962;-58
2021/11/11 05:22:52;;;;;;;;;;;;;;;;;;5045236;28;20336;-58
2021/11/11 05:25:18;;;;;;;;;;;;;;;;;;5044986;28;19919;-58
2021/11/11 05:27:45;;;;;;;;;;;;;;;;;;5045567;28;19913;-58
2021/11/11 05:30:11;;;;;;;;;;;;;;;;;;5047434;28;19913;-57
2021/11/11 05:32:37;;;;;;;;;;;;;;;;;;5045088;28;19915;-58
2021/11/11 05:35:04;;;;;;;;;;;;;;;;;;5044920;28;19917;-58
2021/11/11 05:37:30;;;;;;;;;;;;;;;;;;5044271;28;19913;-57
2021/11/11 05:39:55;;;;;;;;;;;;;;;;;;5058450;28;19916;-58
2021/11/11 05:42:21;;;;;;;;;;;;;;;;;;5064996;28;19912;-58
2021/11/11 05:44:47;;;;;;;;;;;;;;;;;;5065148;28;19950;-58
2021/11/11 05:47:13;;;;;;;;;;;;;;;;;;5065054;28;20419;-58
2021/11/11 05:49:39;;;;;;;;;;;;;;;;;;5062804;28;19927;-57
2021/11/11 05:52:05;;;;;;;;;;;;;;;;;;5064908;28;20315;-58
2021/11/11 05:54:32;;;;;;;;;;;;;;;;;;5064861;28;19927;-58
2021/11/11 05:56:58;;;;;;;;;;;;;;;;;;5064880;28;19909;-58
2021/11/11 05:59:25;;;;;;;;;;;;;;;;;;5063744;28;19927;-58
2021/11/11 06:01:51;;;;;;;;;;;;;;;;;;5064563;28;20345;-58
2021/11/11 06:04:17;;;;;;;;;;;;;;;;;;5064506;28;19908;-58
2021/11/11 06:06:43;;;;;;;;;;;;;;;;;;5065232;28;19913;-58
2021/11/11 06:09:09;;;;;;;;;;;;;;;;;;5063074;28;20587;-58
2021/11/11 06:11:35;;;;;;;;;;;;;;;;;;5064710;28;19955;-58
2021/11/11 06:14:01;;;;;;;;;;;;;;;;;;5063836;28;19939;-58
2021/11/11 06:16:27;;;;;;;;;;;;;;;;;;5064419;28;19909;-58
2021/11/11 06:18:53;;;;;;;;;;;;;;;;;;5063564;28;19939;-58
2021/11/11 06:21:21;;;;;;;;;;;;;;;;;;5063995;28;19913;-58
2021/11/11 06:23:48;;;;;;;;;;;;;;;;;;5064481;28;20007;-58
2021/11/11 06:26:14;;;;;;;;;;;;;;;;;;5064782;28;19953;-58
2021/11/11 06:28:40;;;;;;;;;;;;;;;;;;5063571;28;19916;-58
2021/11/11 06:31:06;;;;;;;;;;;;;;;;;;5061799;28;20023;-58
2021/11/11 06:33:32;;;;;;;;;;;;;;;;;;5064657;28;19920;-58
2021/11/11 06:35:59;;;;;;;;;;;;;;;;;;5064381;28;19912;-58
2021/11/11 06:38:26;;;;;;;;;;;;;;;;;;5063528;28;19919;-58
2021/11/11 06:40:54;;;;;;;;;;;;;;;;;;5064230;28;20003;-58
2021/11/11 06:43:21;;;;;;;;;;;;;;;;;;5064282;28;19912;-58
2021/11/11 06:45:47;;;;;;;;;;;;;;;;;;5061177;28;19957;-58
2021/11/11 06:48:13;;;;;;;;;;;;;;;;;;5064574;28;19999;-58
2021/11/11 06:50:39;;;;;;;;;;;;;;;;;;5067769;28;19918;-58
2021/11/11 06:53:05;;;;;;;;;;;;;;;;;;5067694;28;20318;-58
2021/11/11 06:55:34;;;;;;;;;;;;;;;;;;5055933;28;19923;-58
2021/11/11 06:58:00;;;;;;;;;;;;;;;;;;5067437;28;20303;-58
2021/11/11 07:00:27;;;;;;;;;;;;;;;;;;5067997;28;19908;-58
2021/11/11 07:02:53;;;;;;;;;;;;;;;;;;5067148;28;20387;-58
2021/11/11 07:05:19;;;;;;;;;;;;;;;;;;5067524;28;19920;-57
2021/11/11 07:07:45;;;;;;;;;;;;;;;;;;5067322;28;19916;-58
2021/11/11 07:10:11;;;;;;;;;;;;;;;;;;5060825;28;20004;-58
2021/11/11 07:12:36;;;;;;;;;;;;;;;;;;5047583;28;19920;-58
2021/11/11 07:15:05;;;;;;;;;;;;;;;;;;5047319;28;20466;-57
2021/11/11 07:17:33;;;;;;;;;;;;;;;;;;5047033;28;19999;-58
2021/11/11 07:19:59;;;;;;;;;;;;;;;;;;5046911;28;19913;-58
2021/11/11 07:22:25;;;;;;;;;;;;;;;;;;5067593;28;19935;-58
2021/11/11 07:24:51;;;;;;;;;;;;;;;;;;5067243;28;19974;-57
2021/11/11 07:27:18;;;;;;;;;;;;;;;;;;5066896;28;19970;-58
2021/11/11 07:29:44;;;;;;;;;;;;;;;;;;5068000;28;19908;-58
2021/11/11 07:32:09;;;;;;;;;;;;;;;;;;5064882;28;20363;-57
2021/11/11 07:34:36;;;;;;;;;;;;;;;;;;5066929;28;19924;-58
2021/11/11 07:37:02;;;;;;;;;;;;;;;;;;5066980;28;19908;-58
2021/11/11 07:39:29;;;;;;;;;;;;;;;;;;5067489;28;19930;-58
2021/11/11 07:41:55;;;;;;;;;;;;;;;;;;5065882;28;19965;-58
2021/11/11 07:44:21;;;;;;;;;;;;;;;;;;5046726;28;20355;-58
2021/11/11 07:46:47;;;;;;;;;;;;;;;;;;5046294;28;19917;-58
2021/11/11 07:49:13;;;;;;;;;;;;;;;;;;5047336;28;19927;-57
2021/11/11 07:51:39;;;;;;;;;;;;;;;;;;5046986;28;20406;-58
2021/11/11 07:54:05;;;;;;;;;;;;;;;;;;5063054;28;19917;-58
2021/11/11 07:56:31;;;;;;;;;;;;;;;;;;5066220;28;19923;-58
2021/11/11 07:58:56;;;;;;;;;;;;;;;;;;5068370;28;20279;-58
2021/11/11 08:01:23;;;;;;;;;;;;;;;;;;5067435;28;20003;-57
2021/11/11 08:03:49;;;;;;;;;;;;;;;;;;5068124;28;19912;-58
2021/11/11 08:06:15;;;;;;;;;;;;;;;;;;5052182;28;19921;-58
2021/11/11 08:08:41;;;;;;;;;;;;;;;;;;5048176;28;20003;-58
2021/11/11 08:11:07;;;;;;;;;;;;;;;;;;5047807;28;19917;-58
2021/11/11 08:13:33;;;;;;;;;;;;;;;;;;5047794;28;19973;-58
2021/11/11 08:15:59;;;;;;;;;;;;;;;;;;5057942;28;19912;-58
2021/11/11 08:18:25;;;;;;;;;;;;;;;;;;5067911;28;20388;-58
2021/11/11 08:20:53;;;;;;;;;;;;;;;;;;5067375;28;19982;-58
2021/11/11 08:23:19;;;;;;;;;;;;;;;;;;5047775;28;19982;-58
2021/11/11 08:25:46;;;;;;;;;;;;;;;;;;5048204;28;20383;-58
2021/11/11 08:28:12;;;;;;;;;;;;;;;;;;5055463;28;19927;-58
2021/11/11 08:30:38;;;;;;;;;;;;;;;;;;5047625;28;19913;-58
2021/11/11 08:33:04;;;;;;;;;;;;;;;;;;5047346;28;19920;-58
2021/11/11 08:35:31;;;;;;;;;;;;;;;;;;5047444;28;19966;-58
2021/11/11 08:37:57;;;;;;;;;;;;;;;;;;5047578;28;19991;-58
2021/11/11 08:40:23;;;;;;;;;;;;;;;;;;5059379;28;20015;-58
2021/11/11 08:42:49;;;;;;;;;;;;;;;;;;5047487;28;20023;-58
2021/11/11 08:45:15;;;;;;;;;;;;;;;;;;5047027;28;20448;-57
2021/11/11 08:47:41;;;;;;;;;;;;;;;;;;5055682;28;20402;-58
2021/11/11 08:50:07;;;;;;;;;;;;;;;;;;5066909;28;19913;-58
2021/11/11 08:52:33;;;;;;;;;;;;;;;;;;5064250;28;19924;-58
2021/11/11 08:54:59;;;;;;;;;;;;;;;;;;5053436;28;19970;-58
2021/11/11 08:57:25;;;;;;;;;;;;;;;;;;5047440;28;19909;-58
2021/11/11 08:59:54;;;;;;;;;;;;;;;;;;5047115;28;19913;-58
2021/11/11 09:02:20;;;;;;;;;;;;;;;;;;5047152;28;19920;-58
2021/11/11 09:04:46;;;;;;;;;;;;;;;;;;5047592;28;19912;-58
2021/11/11 09:07:12;;;;;;;;;;;;;;;;;;5047406;28;19958;-58
2021/11/11 09:09:38;;;;;;;;;;;;;;;;;;5054761;28;19913;-58
2021/11/11 09:12:04;;;;;;;;;;;;;;;;;;5064378;28;19931;-58
2021/11/11 09:14:30;;;;;;;;;;;;;;;;;;5070816;28;20306;-61
2021/11/11 09:16:56;;;;;;;;;;;;;;;;;;5086891;28;19940;-56
2021/11/11 09:19:22;;;;;;;;;;;;;;;;;;5055750;28;19923;-57
2021/11/11 09:21:48;;;;;;;;;;;;;;;;;;5052971;28;19916;-57
2021/11/11 09:24:14;;;;;;;;;;;;;;;;;;5057502;28;19995;-57
2021/11/11 09:26:40;;;;;;;;;;;;;;;;;;5057621;28;19999;-57
2021/11/11 09:29:06;;;;;;;;;;;;;;;;;;5046638;28;19931;-57
2021/11/11 09:31:32;;;;;;;;;;;;;;;;;;5060805;28;19924;-57
2021/11/11 09:33:58;;;;;;;;;;;;;;;;;;5054249;28;19916;-57
2021/11/11 09:36:24;;;;;;;;;;;;;;;;;;5046258;28;20283;-57
2021/11/11 09:38:51;;;;;;;;;;;;;;;;;;5064554;28;19916;-57
2021/11/11 09:41:17;;;;;;;;;;;;;;;;;;5065273;28;19960;-57
2021/11/11 09:43:43;;;;;;;;;;;;;;;;;;5067053;28;19970;-57
2021/11/11 09:46:09;;;;;;;;;;;;;;;;;;5057539;28;19920;-57
2021/11/11 09:48:35;;;;;;;;;;;;;;;;;;5059878;28;19912;-57
2021/11/11 09:51:01;;;;;;;;;;;;;;;;;;5046362;28;20665;-57
2021/11/11 09:53:29;;;;;;;;;;;;;;;;;;5056036;28;19927;-59
2021/11/11 09:58:46;;;;;;;;;;;;;;;;;;5066679;28;20005;-56
2021/11/11 10:01:12;;;;;;;;;;;;;;;;;;5058765;28;19924;-56
2021/11/11 10:03:42;;;;;;;;;;;;;;;;;;5048071;28;19912;-57
2021/11/11 10:06:07;;;;;;;;;;;;;;;;;;5045888;28;20388;-57
2021/11/11 10:08:34;;;;;;;;;;;;;;;;;;5064485;28;19920;-57
2021/11/11 10:10:59;;;;;;;;;;;;;;;;;;5064159;28;20227;-57
2021/11/11 10:13:26;;;;;;;;;;;;;;;;;;5057691;28;19909;-57
2021/11/11 10:15:51;;;;;;;;;;;;;;;;;;5045644;28;19919;-57
2021/11/11 10:18:18;;;;;;;;;;;;;;;;;;5056826;28;19934;-57
2021/11/11 10:20:44;;;;;;;;;;;;;;;;;;5058079;28;19928;-57
2021/11/11 10:23:10;;;;;;;;;;;;;;;;;;5055970;28;19916;-57
2021/11/11 10:25:36;;;;;;;;;;;;;;;;;;5069243;28;19912;-57
2021/11/11 10:28:03;;;;;;;;;;;;;;;;;;5064585;28;19928;-57
2021/11/11 10:30:30;;;;;;;;;;;;;;;;;;5066812;28;20379;-57
2021/11/11 10:32:56;;;;;;;;;;;;;;;;;;5062169;28;19913;-56
2021/11/11 10:35:22;;;;;;;;;;;;;;;;;;5065716;28;20511;-57
2021/11/11 10:37:48;;;;;;;;;;;;;;;;;;5069593;28;19916;-57
2021/11/11 10:40:14;;;;;;;;;;;;;;;;;;5064343;28;19920;-56
2021/11/11 10:42:40;;;;;;;;;;;;;;;;;;5051149;28;20039;-56
2021/11/11 10:45:07;;;;;;;;;;;;;;;;;;5061307;28;20003;-58
2021/11/11 10:47:33;;;;;;;;;;;;;;;;;;5063322;28;20007;-57
2021/11/11 10:49:59;;;;;;;;;;;;;;;;;;5065582;28;20874;-57
2021/11/11 10:52:25;;;;;;;;;;;;;;;;;;5072155;28;19908;-56
2021/11/11 10:54:51;;;;;;;;;;;;;;;;;;5073084;28;19917;-57
2021/11/11 10:57:17;;;;;;;;;;;;;;;;;;5054773;28;20493;-57
2021/11/11 10:59:43;;;;;;;;;;;;;;;;;;5066828;28;19940;-56
2021/11/11 11:02:12;;;;;;;;;;;;;;;;;;5064105;28;19917;-59
2021/11/11 11:04:38;;;;;;;;;;;;;;;;;;5067591;28;19967;-57
2021/11/11 11:07:03;;;;;;;;;;;;;;;;;;5050422;28;20398;-59
2021/11/11 11:09:29;;;;;;;;;;;;;;;;;;5062785;28;19917;-57
2021/11/11 11:11:55;;;;;;;;;;;;;;;;;;5065831;28;19916;-57
2021/11/11 11:14:23;;;;;;;;;;;;;;;;;;5060498;28;19959;-57
2021/11/11 11:16:49;;;;;;;;;;;;;;;;;;5065957;28;19920;-57
2021/11/11 11:19:16;;;;;;;;;;;;;;;;;;5061464;28;19917;-56
2021/11/11 11:21:42;;;;;;;;;;;;;;;;;;5053679;28;19919;-57
2021/11/11 11:24:08;;;;;;;;;;;;;;;;;;5049703;28;19924;-57
2021/11/11 11:26:35;;;;;;;;;;;;;;;;;;5051762;28;20002;-57
2021/11/11 11:31:53;;;;;;;;;;;;;;;;;;5052659;28;19920;-57
2021/11/11 11:34:19;;;;;;;;;;;;;;;;;;5048931;28;19917;-57
2021/11/11 11:36:45;;;;;;;;;;;;;;;;;;5049696;28;20474;-57
2021/11/11 11:39:12;;;;;;;;;;;;;;;;;;5049005;28;20380;-57
2021/11/11 11:41:38;;;;;;;;;;;;;;;;;;5051739;28;20275;-57
2021/11/11 11:44:04;;;;;;;;;;;;;;;;;;5048865;28;20406;-57
2021/11/11 11:46:30;;;;;;;;;;;;;;;;;;5049212;28;19909;-59
2021/11/11 11:48:56;;;;;;;;;;;;;;;;;;5048993;28;20283;-59
2021/11/11 11:51:23;;;;;;;;;;;;;;;;;;5051331;28;19959;-59
2021/11/11 11:54:04;;;;;;;;;;;;;;;;;;5065671;28;20003;-57
2021/11/11 11:56:38;;;;;;;;;;;;;;;;;;5049534;28;19935;-57
2021/11/11 11:59:08;;;;;;;;;;;;;;;;;;5048776;28;20660;-57
2021/11/11 12:02:00;;;;;;;;;;;;;;;;;;5051669;28;20398;-57
2021/11/11 12:07:08;;;;;;;;;;;;;;;;;;5058927;28;19958;-57
2021/11/11 12:14:35;;;;;;;;;;;;;;;;;;5052293;28;19948;-58
2021/11/11 12:17:15;;;;;;;;;;;;;;;;;;5055853;28;19947;-57
2021/11/11 12:38:57;;;;;;;;;;;;;;;;;;5056634;28;20012;-57
2021/11/11 12:41:23;;;;;;;;;;;;;;;;;;5055422;28;19917;-57
2021/11/11 12:43:49;;;;;;;;;;;;;;;;;;5048241;28;19916;-57
2021/11/11 12:46:15;;;;;;;;;;;;;;;;;;5056232;28;19920;-57
2021/11/11 12:48:44;;;;;;;;;;;;;;;;;;5066040;28;19913;-58
2021/11/11 12:51:10;;;;;;;;;;;;;;;;;;5060572;28;20007;-57
2021/11/11 12:53:38;;;;;;;;;;;;;;;;;;5056951;28;20448;-58
2021/11/11 12:56:13;;;;;;;;;;;;;;;;;;5057035;28;19913;-58
2021/11/11 12:58:39;;;;;;;;;;;;;;;;;;5053258;28;20350;-57
2021/11/11 13:01:05;;;;;;;;;;;;;;;;;;5046967;28;20407;-58
2021/11/11 13:03:32;;;;;;;;;;;;;;;;;;5054504;28;19962;-58
2021/11/11 13:05:58;;;;;;;;;;;;;;;;;;5054031;28;19912;-58
2021/11/11 13:08:24;;;;;;;;;;;;;;;;;;5060293;28;19909;-58
2021/11/11 13:10:50;;;;;;;;;;;;;;;;;;5063688;28;20357;-58
2021/11/11 13:13:19;;;;;;;;;;;;;;;;;;5066728;28;19908;-58
2021/11/11 13:15:45;;;;;;;;;;;;;;;;;;5058490;28;20234;-58
2021/11/11 13:18:14;;;;;;;;;;;;;;;;;;5066247;28;20205;-58
2021/11/11 13:20:48;;;;;;;;;;;;;;;;;;5065293;28;19955;-58
2021/11/11 13:23:25;;;;;;;;;;;;;;;;;;5052455;28;19909;-58
2021/11/11 13:58:57;;;;;;;;;;;;;;;;;;5051946;28;19915;-58
2021/11/11 14:03:00;;;;;;;;;;;;;;;;;;5062396;28;19920;-58
2021/11/11 14:05:00;;;;;;;;;;;;;;;;;;5051751;28;19970;-58
2021/11/11 15:16:17;;;;;;;;;;;;;;;;;;5051070;28;20360;-58
2021/11/11 16:21:11;;;;;;;;;;;;;;;;;;5056293;28;19974;-58
2021/11/11 16:26:22;;;;;;;;;;;;;;;;;;5059956;28;19970;-58
2021/11/11 16:28:51;;;;;;;;;;;;;;;;;;5056054;28;19940;-58
2021/11/11 16:31:17;;;;;;;;;;;;;;;;;;5059339;28;19913;-58
2021/11/11 16:33:43;;;;;;;;;;;;;;;;;;5063032;28;19917;-58
2021/11/11 16:36:09;;;;;;;;;;;;;;;;;;5057622;28;20437;-59
2021/11/11 16:38:36;;;;;;;;;;;;;;;;;;5051049;28;20383;-58
2021/11/11 16:41:02;;;;;;;;;;;;;;;;;;5048409;28;19915;-58
2021/11/11 16:43:28;;;;;;;;;;;;;;;;;;5049151;28;19912;-59
2021/11/11 16:45:54;;;;;;;;;;;;;;;;;;5054354;28;19932;-59
2021/11/11 16:48:20;;;;;;;;;;;;;;;;;;5068023;28;20299;-58
2021/11/11 16:50:46;;;;;;;;;;;;;;;;;;5052451;28;19967;-59
2021/11/11 16:53:12;;;;;;;;;;;;;;;;;;5048656;28;19920;-58
2021/11/11 16:55:38;;;;;;;;;;;;;;;;;;5048270;28;19917;-58
2021/11/11 16:58:04;;;;;;;;;;;;;;;;;;5047945;28;19913;-58
2021/11/11 17:00:30;;;;;;;;;;;;;;;;;;5065252;28;20011;-58
2021/11/11 17:02:56;;;;;;;;;;;;;;;;;;5053801;28;19912;-58
2021/11/11 17:05:23;;;;;;;;;;;;;;;;;;5059276;28;19955;-58
2021/11/11 17:07:50;;;;;;;;;;;;;;;;;;5058183;28;20379;-59
2021/11/11 17:10:16;;;;;;;;;;;;;;;;;;5047501;28;19909;-59
2021/11/11 17:12:42;;;;;;;;;;;;;;;;;;5054269;28;19981;-58
2021/11/11 17:15:09;;;;;;;;;;;;;;;;;;5055752;28;19916;-59
2021/11/11 17:17:35;;;;;;;;;;;;;;;;;;5050543;28;19909;-59
2021/11/11 17:20:02;;;;;;;;;;;;;;;;;;5054734;28;19917;-58
2021/11/11 17:22:36;;;;;;;;;;;;;;;;;;5065526;28;19991;-59
2021/11/11 17:26:16;;;;;;;;;;;;;;;;;;5064874;28;19958;-59
2021/11/11 17:28:05;;;;;;;;;;;;;;;;;;5062954;28;19913;-59
2021/11/11 17:30:31;;;;;;;;;;;;;;;;;;5066140;28;19924;-59
2021/11/11 17:32:57;;;;;;;;;;;;;;;;;;5063073;28;19912;-59
2021/11/11 17:35:23;;;;;;;;;;;;;;;;;;5064076;28;19916;-59
2021/11/11 17:37:50;;;;;;;;;;;;;;;;;;5064115;28;19917;-58
2021/11/11 17:40:18;;;;;;;;;;;;;;;;;;5065333;28;19916;-58
2021/11/11 17:42:44;;;;;;;;;;;;;;;;;;5064334;28;20415;-59
2021/11/11 17:45:10;;;;;;;;;;;;;;;;;;5065789;28;20413;-59
2021/11/11 17:47:38;;;;;;;;;;;;;;;;;;5048436;28;19944;-59
2021/11/11 17:50:06;;;;;;;;;;;;;;;;;;5056999;28;19915;-59
2021/11/11 17:52:34;;;;;;;;;;;;;;;;;;5067696;28;19916;-59
2021/11/11 17:55:03;;;;;;;;;;;;;;;;;;5045564;28;19923;-60
2021/11/11 17:57:32;;;;;;;;;;;;;;;;;;5056144;28;20297;-59
2021/11/11 17:59:58;;;;;;;;;;;;;;;;;;5055879;28;19966;-59
2021/11/11 18:02:27;;;;;;;;;;;;;;;;;;5060425;28;19913;-59
2021/11/11 18:04:55;;;;;;;;;;;;;;;;;;5065645;28;20015;-59
2021/11/11 18:10:13;;;;;;;;;;;;;;;;;;5045725;28;19973;-59
2021/11/11 18:15:10;;;;;;;;;;;;;;;;;;5043958;28;20291;-59
2021/11/11 18:17:38;;;;;;;;;;;;;;;;;;5049761;28;19920;-59
2021/11/11 18:20:03;;;;;;;;;;;;;;;;;;5052831;28;19917;-58
2021/11/11 18:22:32;;;;;;;;;;;;;;;;;;5048992;28;20395;-59
2021/11/11 18:25:00;;;;;;;;;;;;;;;;;;5062801;28;19923;-59
2021/11/11 18:27:26;;;;;;;;;;;;;;;;;;5051673;28;19912;-59
2021/11/11 18:29:55;;;;;;;;;;;;;;;;;;5057218;28;19928;-59
2021/11/11 18:32:27;;;;;;;;;;;;;;;;;;5055384;28;20370;-59
2021/11/11 18:35:22;;;;;;;;;;;;;;;;;;5062891;28;20022;-59
2021/11/11 18:37:44;;;;;;;;;;;;;;;;;;5057547;28;19931;-59
2021/11/11 18:40:10;;;;;;;;;;;;;;;;;;5048365;28;19927;-59
2021/11/11 18:42:35;;;;;;;;;;;;;;;;;;5058838;28;19916;-59
2021/11/11 18:45:04;;;;;;;;;;;;;;;;;;5062506;28;19974;-59
2021/11/11 18:47:43;;;;;;;;;;;;;;;;;;5048237;28;20395;-59
2021/11/11 18:50:09;;;;;;;;;;;;;;;;;;5052879;28;19913;-59
2021/11/11 18:52:35;;;;;;;;;;;;;;;;;;5049551;28;19919;-59
2021/11/11 18:55:01;;;;;;;;;;;;;;;;;;5057760;28;20476;-59
2021/11/11 18:57:28;;;;;;;;;;;;;;;;;;5059904;28;20295;-59
2021/11/11 18:59:55;;;;;;;;;;;;;;;;;;5052838;28;19924;-59
2021/11/11 19:02:24;;;;;;;;;;;;;;;;;;5060771;28;19920;-59
2021/11/11 19:04:57;;;;;;;;;;;;;;;;;;5056655;28;19913;-59
2021/11/11 19:07:36;;;;;;;;;;;;;;;;;;5053176;28;19921;-59
2021/11/11 19:10:03;;;;;;;;;;;;;;;;;;5051504;28;19913;-59
2021/11/11 19:12:40;;;;;;;;;;;;;;;;;;5054114;28;19916;-59
2021/11/11 19:15:08;;;;;;;;;;;;;;;;;;5047605;28;20016;-60
2021/11/11 19:17:44;;;;;;;;;;;;;;;;;;5058088;28;20391;-59
2021/11/11 19:20:10;;;;;;;;;;;;;;;;;;5056582;28;19912;-60
2021/11/11 19:22:37;;;;;;;;;;;;;;;;;;5051219;28;19919;-60
2021/11/11 19:25:04;;;;;;;;;;;;;;;;;;5056088;28;19931;-60
2021/11/11 19:27:30;;;;;;;;;;;;;;;;;;5054874;28;19952;-60
2021/11/11 19:29:56;;;;;;;;;;;;;;;;;;5054999;28;19971;-60
2021/11/11 19:32:23;;;;;;;;;;;;;;;;;;5059694;28;20181;-60
2021/11/11 19:35:05;;;;;;;;;;;;;;;;;;5058130;28;19924;-60
2021/11/11 19:37:49;;;;;;;;;;;;;;;;;;5061049;28;19916;-59
2021/11/11 19:48:25;;;;;;;;;;;;;;;;;;5049685;28;19913;-59
2021/11/11 20:08:00;;;;;;;;;;;;;;;;;;5049403;28;20304;-59
2021/11/11 20:57:34;;;;;;;;;;;;;;;;;;5048440;28;19975;-59
2021/11/11 21:00:08;;;;;;;;;;;;;;;;;;5055680;28;20295;-59
2021/11/11 21:02:37;;;;;;;;;;;;;;;;;;5047093;28;19917;-59
2021/11/11 21:05:19;;;;;;;;;;;;;;;;;;5049331;28;19990;-60
2021/11/11 21:20:57;;;;;;;;;;;;;;;;;;5057306;28;19920;-60
2021/11/11 21:23:23;;;;;;;;;;;;;;;;;;5046131;28;19996;-61
2021/11/11 21:25:49;;;;;;;;;;;;;;;;;;5057221;28;20420;-60
2021/11/11 21:28:17;;;;;;;;;;;;;;;;;;5061502;28;19912;-59
2021/11/11 21:30:42;;;;;;;;;;;;;;;;;;5055648;28;20374;-59
2021/11/11 21:33:14;;;;;;;;;;;;;;;;;;5053971;28;20019;-59
2021/11/11 21:35:50;;;;;;;;;;;;;;;;;;5045068;28;19917;-59
2021/11/11 21:40:42;;;;;;;;;;;;;;;;;;5044714;28;19969;-59
2021/11/11 21:43:09;;;;;;;;;;;;;;;;;;5044769;28;20355;-59
2021/11/11 21:45:36;;;;;;;;;;;;;;;;;;5043493;28;19999;-60
2021/11/11 21:48:02;;;;;;;;;;;;;;;;;;5053333;28;19924;-59
2021/11/11 21:50:28;;;;;;;;;;;;;;;;;;5057599;28;19917;-60
2021/11/11 21:53:06;;;;;;;;;;;;;;;;;;5048298;28;19920;-60
2021/11/11 21:56:38;;;;;;;;;;;;;;;;;;5057004;28;20096;-59
2021/11/11 22:04:04;;;;;;;;;;;;;;;;;;5055288;28;20014;-60
2021/11/11 22:30:19;;;;;;;;;;;;;;;;;;5065209;28;19923;-60
2021/11/11 22:33:28;;;;;;;;;;;;;;;;;;5064262;28;19963;-60